AirNav  
 
 953 users online  

1I1 Marcy Field Airport
Keene, New York, USA

GOING TO KEENE?


FAA INFORMATION EFFECTIVE 29 MARCH 2018

Location

FAA Identifier: 1I1
Lat/Long: 44-13-15.0800N / 073-47-16.8400W
44-13.251333N / 073-47.280667W
44.2208556 / -73.7880111
(estimated)
Elevation: 985 ft. / 300.2 m (surveyed)
Variation: 15W (1985)
From city: 2 miles S of KEENE, NY
Time zone: UTC -4 (UTC -5 during Standard Time)
Zip code: 12942

Airport Operations

Airport use: Open to the public
Activation date: 06/1940
Control tower: no
ARTCC: BOSTON CENTER
FSS: BURLINGTON FLIGHT SERVICE STATION
NOTAMs facility: BTV (NOTAM-D service available)
Attendance: UNATNDD
Wind indicator: yes
Segmented circle: no

Airport Communications

CTAF: 122.9
  • 122.9

Nearby radio navigation aids

VOR radial/distance  VOR name  Freq  Var
SLKr133/20.4SARANAC LAKE VOR/DME109.2014W
BTVr263/28.1BURLINGTON VOR/DME117.5015W

Airport Services

Airframe service: NONE
Powerplant service: NONE

Runway Information

Runway 2/20

Dimensions: 2390 x 95 ft. / 728 x 29 m
Surface: turf, in good condition
RUNWAY 2  RUNWAY 20
Traffic pattern: leftleft
Obstructions: 15 ft. road79 ft. trees, 25 ft. from runway, 90 ft. right of centerline

Airport Ownership and Management from official FAA records

Ownership: Publicly-owned
Owner: TOWN OF KEENE
ROUTE 73
KEENE, NY 12942
Phone 518-576-4444
Manager: JOSEPH P. WILSON
TOWN OF KEENE, ROUTE 73
KEENE, NY 12942-4444
Phone 518-576-4444

Airport Operational Statistics

Aircraft based on the field: 1
Single engine airplanes: 1
    
Aircraft operations: 135/year *
74% local general aviation
15% transient general aviation
11% military
* for 12-month period ending 25 August 2016

Additional Remarks

CLOSES LATE OCTOBER - REOPENS MID MAY.
MAY THROUGH OCTOBER DATES BY NOTAM.

Instrument Procedures

There are no published instrument procedures at 1I1.

Some nearby airports with instrument procedures:

KLKP - Lake Placid Airport (8 nm W)
KSLK - Adirondack Regional Airport (20 nm NW)
4B6 - Ticonderoga Municipal Airport (26 nm SE)
KPBG - Plattsburgh International Airport (29 nm NE)
KBTV - Burlington International Airport (31 nm NE)
 
Loc | Ops | Rwys | IFR | FBO | Links
Com | Nav | Svcs | Stats | Notes

AirNav Hotels Sweepstakes
 
Area around 1I1 (Marcy Field Airport)
 
Road maps at: MapQuest Bing Google
 
Aerial photo
WARNING: Photo may not be current or correct
Aerial photo of 1I1 (Marcy Field Airport)
Photo by Luke Wrest
Photo taken 10-Jul-2011
looking west.

Do you have a better or more recent aerial photo of Marcy Field Airport that you would like to share? If so, please send us your photo.

 
Sectional chart

 
Airport distance calculator
Flying to Marcy Field Airport? Find the distance to fly.

From to 1I1

Sunrise and sunset
Times for 22-Apr-2018
 Local
(UTC-4)
 Zulu
(UTC)
Morning civil twilight05:3009:30
Sunrise06:0110:01
Sunset19:4623:46
Evening civil twilight20:1700:17

Current date and time
Zulu (UTC)  22-Apr-2018 22:30:57
Local (UTC-4)  22-Apr-2018 18:30:57
 
METAR
KSLK 
21nm NW 
222151Z AUTO VRB04KT 10SM CLR 11/M11 A3033 RMK AO2 SLP288 T01061111
KPBG 
29nm NE 
222153Z AUTO 11006KT 10SM CLR 13/M08 A3035 RMK AO2 SLP278 T01281078
KBTV 
31nm NE 
222154Z 35008KT 10SM CLR 14/M09 A3035 RMK AO2 SLP280 T01391089
K6B0 
33nm SE 
222215Z AUTO 01009G16KT 10SM CLR 12/M09 A3034 RMK AO2 T01211089
TAF
KSLK 
21nm NW 
221720Z 2218/2318 36007KT P6SM SKC FM230000 VRB02KT P6SM SKC FM231500 22005KT P6SM SKC
NOTAMs
Click for the latest NOTAMs
NOTAMs are issued by the DoD/FAA and will open in a separate window not controlled by AirNav.

 

 
 

Would you like to see your business listed on this page?

 If your business provides an interesting product or service to pilots, flight crews, aircraft, or users of the Marcy Field Airport, you should consider listing it here.  To start the listing process, click on the button below
 
Add a business
 

Other Pages about Marcy Field Airport

Update a link
 
Copyright © AirNav, LLC. All rights reserved. Privacy Policy  Contact